createdAt,value
2018-08-28T00:01:53.458Z,100200.36
2018-08-28T00:04:22.422Z,100205.30
2018-08-28T00:06:51.397Z,100208.73
2018-08-28T00:09:20.378Z,100203.05
2018-08-28T00:11:49.378Z,100203.62
2018-08-28T00:14:20.082Z,100200.70
2018-08-28T00:16:49.052Z,100214.66
2018-08-28T00:19:18.021Z,100215.29
2018-08-28T00:21:47.409Z,100206.23
2018-08-28T00:24:16.375Z,100212.84
2018-08-28T00:26:45.506Z,100215.55
2018-08-28T00:29:14.486Z,100213.30
2018-08-28T00:31:43.444Z,100216.98
2018-08-28T00:34:12.413Z,100221.77
2018-08-28T00:36:41.374Z,100224.02
2018-08-28T00:39:10.338Z,100228.44
2018-08-28T00:41:39.301Z,100228.44
2018-08-28T00:44:08.334Z,100232.22
2018-08-28T00:46:37.682Z,100230.16
2018-08-28T00:49:06.667Z,100226.50
2018-08-28T00:51:35.658Z,100230.83
2018-08-28T00:54:04.678Z,100230.06
2018-08-28T00:56:33.657Z,100234.61
2018-08-28T00:59:02.666Z,100234.17
2018-08-28T01:01:31.658Z,100234.45
2018-08-28T01:04:00.677Z,100226.36
2018-08-28T01:06:29.742Z,100226.61
2018-08-28T01:08:58.761Z,100229.41
2018-08-28T01:11:27.723Z,100224.44
2018-08-28T01:13:56.694Z,100226.91
2018-08-28T01:16:25.708Z,100225.30
2018-08-28T01:18:54.674Z,100228.56
2018-08-28T01:21:23.680Z,100228.47
2018-08-28T01:23:52.709Z,100229.35
2018-08-28T01:26:21.728Z,100228.78
2018-08-28T01:28:50.725Z,100229.09
2018-08-28T01:31:19.712Z,100233.87
2018-08-28T01:33:48.718Z,100233.34
2018-08-28T01:36:17.701Z,100236.11
2018-08-28T01:38:46.721Z,100241.50
2018-08-28T01:41:15.706Z,100245.78
2018-08-28T01:43:44.681Z,100246.47
2018-08-28T01:46:13.702Z,100244.95
2018-08-28T01:48:42.686Z,100249.59
2018-08-28T01:51:11.698Z,100244.63
2018-08-28T01:53:40.675Z,100257.37
2018-08-28T01:56:09.687Z,100254.08
2018-08-28T01:58:38.678Z,100252.77
2018-08-28T02:01:07.753Z,100256.83
2018-08-28T02:03:36.730Z,100255.20
2018-08-28T02:06:05.999Z,100249.75
2018-08-28T02:08:34.980Z,100250.59
2018-08-28T02:11:04.126Z,100252.26
2018-08-28T02:13:33.210Z,100253.67
2018-08-28T02:16:02.424Z,100255.59
2018-08-28T02:18:31.436Z,100262.45
2018-08-28T02:21:00.434Z,100254.67
2018-08-28T02:23:29.419Z,100255.73
2018-08-28T02:25:58.439Z,100251.59
2018-08-28T02:28:27.514Z,100252.44
2018-08-28T02:30:56.510Z,100253.89
2018-08-28T02:33:25.506Z,100255.44
2018-08-28T02:35:57.506Z,100256.73
2018-08-28T02:38:26.490Z,100261.37
2018-08-28T02:40:55.499Z,100260.09
2018-08-28T02:43:24.471Z,100260.81
2018-08-28T02:45:53.443Z,100261.86
2018-08-28T02:48:22.452Z,100259.98
2018-08-28T02:50:51.415Z,100264.47
2018-08-28T02:53:20.390Z,100262.33
2018-08-28T02:55:49.403Z,100262.47
2018-08-28T02:58:18.490Z,100265.92
2018-08-28T03:00:47.492Z,100265.00
2018-08-28T03:03:16.479Z,100267.37
2018-08-28T03:05:45.450Z,100271.75
2018-08-28T03:08:14.462Z,100276.00
2018-08-28T03:10:43.440Z,100270.34
2018-08-28T03:13:12.438Z,100273.42
2018-08-28T03:15:41.514Z,100278.16
2018-08-28T03:18:10.433Z,100274.83
2018-08-28T03:20:39.412Z,100278.03
2018-08-28T03:23:08.452Z,100278.50
2018-08-28T03:25:37.452Z,100279.58
2018-08-28T03:28:06.443Z,100283.73
2018-08-28T03:30:35.447Z,100281.59
2018-08-28T03:33:04.450Z,100282.27
2018-08-28T03:35:33.493Z,100275.99
2018-08-28T03:38:02.528Z,100272.55
2018-08-28T03:40:31.477Z,100280.84
2018-08-28T03:43:00.489Z,100286.75
2018-08-28T03:45:29.555Z,100281.67
2018-08-28T03:47:58.542Z,100285.92
2018-08-28T03:50:27.598Z,100288.06
2018-08-28T03:52:56.594Z,100288.89
2018-08-28T03:55:25.619Z,100291.41
2018-08-28T03:57:54.585Z,100300.40
2018-08-28T04:00:23.579Z,100294.34
2018-08-28T04:02:52.554Z,100296.98
2018-08-28T04:05:21.790Z,100294.61
2018-08-28T04:07:50.782Z,100299.13
2018-08-28T04:10:19.755Z,100298.66
2018-08-28T04:12:48.754Z,100297.82
2018-08-28T04:15:17.730Z,100298.53
2018-08-28T04:17:50.431Z,100296.72
2018-08-28T04:20:20.551Z,100303.94
2018-08-28T04:22:49.596Z,100308.77
2018-08-28T04:25:19.095Z,100307.06
2018-08-28T04:27:48.490Z,100311.48
2018-08-28T04:30:17.597Z,100314.98
2018-08-28T04:32:46.562Z,100314.45
2018-08-28T04:35:15.551Z,100313.86
2018-08-28T04:37:44.529Z,100317.06
2018-08-28T04:40:13.538Z,100319.21
2018-08-28T04:42:42.515Z,100324.66
2018-08-28T04:45:11.503Z,100321.91
2018-08-28T04:47:40.490Z,100322.61
2018-08-28T04:50:09.532Z,100328.44
2018-08-28T04:52:38.531Z,100330.71
2018-08-28T04:55:07.502Z,100330.84
2018-08-28T04:57:36.682Z,100333.94
2018-08-28T05:00:07.299Z,100333.36
2018-08-28T05:02:37.638Z,100336.81
2018-08-28T05:05:08.518Z,100345.01
2018-08-28T05:07:37.514Z,100345.34
2018-08-28T05:10:07.216Z,100340.59
2018-08-28T05:12:36.194Z,100341.33
2018-08-28T05:15:05.397Z,100343.01
2018-08-28T05:17:34.451Z,100347.42
2018-08-28T05:20:03.483Z,100350.27
2018-08-28T05:22:32.462Z,100346.95
2018-08-28T05:25:01.677Z,100354.31
2018-08-28T05:27:30.741Z,100351.83
2018-08-28T05:29:59.747Z,100357.17
2018-08-28T05:32:28.760Z,100350.55
2018-08-28T05:34:57.722Z,100356.36
2018-08-28T05:37:26.718Z,100361.45
2018-08-28T05:39:55.702Z,100353.61
2018-08-28T05:42:24.682Z,100361.33
2018-08-28T05:44:53.690Z,100363.59
2018-08-28T05:47:22.667Z,100364.75
2018-08-28T05:49:51.933Z,100363.66
2018-08-28T05:52:20.919Z,100363.20
2018-08-28T05:54:49.901Z,100361.26
2018-08-28T05:57:18.900Z,100362.67
2018-08-28T05:59:47.954Z,100364.80
2018-08-28T06:02:16.991Z,100365.02
2018-08-28T06:04:45.981Z,100371.60
2018-08-28T06:07:14.961Z,100368.63
2018-08-28T06:09:44.022Z,100362.05
2018-08-28T06:12:13.044Z,100367.86
2018-08-28T06:14:42.096Z,100370.69
2018-08-28T06:17:11.029Z,100363.23
2018-08-28T06:19:40.038Z,100364.59
2018-08-28T06:22:09.199Z,100367.64
2018-08-28T06:24:38.183Z,100371.66
2018-08-28T06:27:07.278Z,100361.69
2018-08-28T06:29:36.255Z,100371.47
2018-08-28T06:32:05.620Z,100366.84
2018-08-28T06:34:34.664Z,100368.56
2018-08-28T06:37:03.742Z,100367.20
2018-08-28T06:39:32.751Z,100365.31
2018-08-28T06:42:01.818Z,100353.28
2018-08-28T06:44:30.858Z,100366.30
2018-08-28T06:46:59.842Z,100365.20
2018-08-28T06:49:28.948Z,100367.95
2018-08-28T06:51:57.875Z,100373.56
2018-08-28T06:54:26.848Z,100365.13
2018-08-28T06:56:55.911Z,100361.06
2018-08-28T06:59:24.832Z,100358.63
2018-08-28T07:01:53.859Z,100365.58
2018-08-28T07:04:22.840Z,100359.95
2018-08-28T07:06:51.844Z,100358.80
2018-08-28T07:09:20.810Z,100357.48
2018-08-28T07:11:49.851Z,100359.41
2018-08-28T07:14:18.854Z,100363.60
2018-08-28T07:16:47.839Z,100364.04
2018-08-28T07:19:17.226Z,100362.00
2018-08-28T07:21:46.218Z,100361.00
2018-08-28T07:24:15.265Z,100363.74
2018-08-28T07:26:44.279Z,100357.07
2018-08-28T07:29:13.270Z,100359.03
2018-08-28T07:31:42.296Z,100353.58
2018-08-28T07:34:11.276Z,100355.73
2018-08-28T07:36:40.679Z,100356.98
2018-08-28T07:39:09.766Z,100351.77
2018-08-28T07:41:38.759Z,100351.19
2018-08-28T07:44:07.859Z,100346.63
2018-08-28T07:46:36.831Z,100344.70
2018-08-28T07:49:06.682Z,100344.18
2018-08-28T07:51:35.666Z,100345.92
2018-08-28T07:54:04.662Z,100346.35
2018-08-28T07:56:34.058Z,100339.67
2018-08-28T07:59:03.078Z,100346.05
2018-08-28T08:01:32.206Z,100342.04
2018-08-28T08:04:01.084Z,100340.31
2018-08-28T08:06:30.080Z,100344.21
2018-08-28T08:08:59.058Z,100337.00
2018-08-28T08:11:28.324Z,100347.55
2018-08-28T08:13:57.314Z,100350.69
2018-08-28T08:16:26.394Z,100351.88
2018-08-28T08:18:55.406Z,100353.56
2018-08-28T08:21:24.400Z,100362.05
2018-08-28T08:23:53.442Z,100356.94
2018-08-28T08:26:22.669Z,100360.09
2018-08-28T08:28:51.654Z,100361.25
2018-08-28T08:31:20.790Z,100357.28
2018-08-28T08:33:49.786Z,100355.98
2018-08-28T08:36:18.791Z,100355.32
2018-08-28T08:38:47.766Z,100355.64
2018-08-28T08:41:16.742Z,100357.92
2018-08-28T08:43:45.767Z,100356.59
2018-08-28T08:46:14.794Z,100356.94
2018-08-28T08:48:43.807Z,100357.77
2018-08-28T08:51:12.849Z,100353.95
2018-08-28T08:53:41.837Z,100350.58
2018-08-28T08:56:11.033Z,100354.33
2018-08-28T08:58:40.023Z,100355.56
2018-08-28T09:01:09.035Z,100354.34
2018-08-28T09:03:38.013Z,100357.11
2018-08-28T09:06:07.271Z,100354.97
2018-08-28T09:08:36.197Z,100343.39
2018-08-28T09:11:05.226Z,100350.16
2018-08-28T09:13:34.359Z,100349.16
2018-08-28T09:16:03.268Z,100345.12
2018-08-28T09:18:32.277Z,100340.24
2018-08-28T09:21:01.268Z,100342.06
2018-08-28T09:23:30.259Z,100347.22
2018-08-28T09:25:59.299Z,100342.73
2018-08-28T09:28:28.267Z,100345.61
2018-08-28T09:30:57.283Z,100343.27
2018-08-28T09:33:26.261Z,100340.49
2018-08-28T09:35:55.565Z,100327.73
2018-08-28T09:38:24.623Z,100324.73
2018-08-28T09:40:53.522Z,100328.29
2018-08-28T09:43:22.530Z,100322.50
2018-08-28T09:45:51.706Z,100311.56
2018-08-28T09:48:20.906Z,100318.77
2018-08-28T09:50:49.714Z,100313.09
2018-08-28T09:53:18.794Z,100314.16
2018-08-28T09:55:47.774Z,100311.78
2018-08-28T09:58:16.762Z,100312.35
2018-08-28T10:00:51.102Z,100307.35
2018-08-28T10:03:20.082Z,100303.14
2018-08-28T10:05:49.154Z,100305.38
2018-08-28T10:08:18.379Z,100303.23
2018-08-28T10:10:47.428Z,100306.75
2018-08-28T10:13:16.354Z,100297.05
2018-08-28T10:15:45.371Z,100300.08
2018-08-28T10:18:14.385Z,100294.44
2018-08-28T10:20:43.362Z,100294.09
2018-08-28T10:23:12.382Z,100294.50
2018-08-28T10:25:41.371Z,100285.48
2018-08-28T10:28:10.365Z,100290.06
2018-08-28T10:30:39.446Z,100294.50
2018-08-28T10:33:08.422Z,100288.88
2018-08-28T10:35:37.696Z,100280.87
2018-08-28T10:38:06.720Z,100288.86
2018-08-28T10:40:35.658Z,100282.05
2018-08-28T10:43:04.703Z,100282.91
2018-08-28T10:45:33.668Z,100281.09
2018-08-28T10:48:02.715Z,100276.27
2018-08-28T10:50:31.691Z,100275.92
2018-08-28T10:53:00.702Z,100282.52
2018-08-28T10:55:29.674Z,100274.23
2018-08-28T10:57:58.666Z,100273.52
2018-08-28T11:00:27.674Z,100271.45
2018-08-28T11:02:56.650Z,100271.66
2018-08-28T11:05:25.642Z,100265.31
2018-08-28T11:07:54.635Z,100258.31
2018-08-28T11:10:23.625Z,100262.20
2018-08-28T11:12:52.878Z,100260.98
2018-08-28T11:15:21.860Z,100250.91
2018-08-28T11:17:50.826Z,100252.35
2018-08-28T11:20:19.822Z,100261.56
2018-08-28T11:22:48.857Z,100264.84
2018-08-28T11:25:17.795Z,100263.19
2018-08-28T11:27:46.802Z,100260.69
2018-08-28T11:30:15.822Z,100255.17
2018-08-28T11:32:44.944Z,100257.81
2018-08-28T11:35:13.964Z,100251.25
2018-08-28T11:37:42.970Z,100249.68
2018-08-28T11:40:11.946Z,100242.09
2018-08-28T11:42:40.948Z,100241.83
2018-08-28T11:45:09.923Z,100238.72
2018-08-28T11:47:38.927Z,100233.13
2018-08-28T11:50:07.918Z,100220.91
2018-08-28T11:52:36.930Z,100213.79
2018-08-28T11:55:06.220Z,100216.55
2018-08-28T11:57:35.405Z,100213.46
2018-08-28T12:00:04.923Z,100215.83
2018-08-28T12:02:33.919Z,100218.38
2018-08-28T12:05:02.969Z,100213.91
2018-08-28T12:07:31.946Z,100214.52
2018-08-28T12:10:00.936Z,100214.10
2018-08-28T12:12:29.944Z,100212.89
2018-08-28T12:14:58.939Z,100205.09
2018-08-28T12:17:27.931Z,100205.02
2018-08-28T12:19:56.914Z,100198.33
2018-08-28T12:22:25.914Z,100197.61
2018-08-28T12:24:54.912Z,100189.30
2018-08-28T12:27:23.903Z,100201.36
2018-08-28T12:29:52.899Z,100194.59
2018-08-28T12:32:21.883Z,100193.36
2018-08-28T12:34:50.887Z,100188.30
2018-08-28T12:37:19.863Z,100180.48
2018-08-28T12:39:48.834Z,100183.48
2018-08-28T12:42:17.823Z,100183.48
2018-08-28T12:44:46.802Z,100171.89
2018-08-28T12:47:15.794Z,100174.51
2018-08-28T12:49:44.787Z,100167.73
2018-08-28T12:52:13.865Z,100165.30
2018-08-28T12:54:42.801Z,100158.67
2018-08-28T12:57:11.814Z,100158.33
2018-08-28T12:59:40.818Z,100161.78
2018-08-28T13:02:09.927Z,100156.01
2018-08-28T13:04:38.890Z,100158.01
2018-08-28T13:07:07.881Z,100154.67
2018-08-28T13:09:36.850Z,100156.18
2018-08-28T13:12:05.846Z,100148.16
2018-08-28T13:14:34.878Z,100152.54
2018-08-28T13:17:03.908Z,100149.37
2018-08-28T13:19:32.890Z,100152.96
2018-08-28T13:22:01.924Z,100147.42
2018-08-28T13:24:30.986Z,100143.56
2018-08-28T13:27:00.042Z,100141.20
2018-08-28T13:29:29.067Z,100133.59
2018-08-28T13:31:58.099Z,100140.47
2018-08-28T13:34:27.110Z,100133.97
2018-08-28T13:36:57.323Z,100137.62
2018-08-28T13:39:26.309Z,100133.98
2018-08-28T13:41:55.332Z,100126.02
2018-08-28T13:44:24.394Z,100127.72
2018-08-28T13:46:53.394Z,100130.80
2018-08-28T13:49:22.426Z,100123.66
2018-08-28T13:51:51.429Z,100125.48
2018-08-28T13:54:20.477Z,100127.41
2018-08-28T13:56:49.413Z,100126.76
2018-08-28T13:59:18.418Z,100121.61
2018-08-28T14:01:47.404Z,100120.86
2018-08-28T14:04:16.686Z,100117.09
2018-08-28T14:06:45.699Z,100108.19
2018-08-28T14:09:14.677Z,100110.46
2018-08-28T14:11:45.086Z,100109.20
2018-08-28T14:14:14.106Z,100098.16
2018-08-28T14:16:43.143Z,100094.01
2018-08-28T14:19:12.126Z,100099.85
2018-08-28T14:21:41.129Z,100097.81
2018-08-28T14:24:10.279Z,100094.31
2018-08-28T14:26:39.552Z,100095.73
2018-08-28T14:29:08.571Z,100087.20
2018-08-28T14:31:37.521Z,100087.04
2018-08-28T14:34:06.519Z,100077.55
2018-08-28T14:36:35.494Z,100078.95
2018-08-28T14:39:05.883Z,100077.85
2018-08-28T14:41:34.859Z,100084.50
2018-08-28T14:44:04.030Z,100077.93
2018-08-28T14:46:33.008Z,100076.80
2018-08-28T14:49:02.286Z,100077.20
2018-08-28T14:51:31.263Z,100071.17
2018-08-28T14:54:00.266Z,100072.50
2018-08-28T14:56:29.437Z,100070.39
2018-08-28T14:58:58.458Z,100071.91
2018-08-28T15:01:27.559Z,100067.20
2018-08-28T15:03:56.546Z,100067.95
2018-08-28T15:06:25.635Z,100057.19
2018-08-28T15:08:54.627Z,100059.34
2018-08-28T15:11:23.647Z,100054.91
2018-08-28T15:13:52.674Z,100059.67
2018-08-28T15:16:21.674Z,100057.86
2018-08-28T15:18:50.691Z,100052.84
2018-08-28T15:21:19.704Z,100053.47
2018-08-28T15:23:48.953Z,100051.07
2018-08-28T15:26:18.027Z,100047.31
2018-08-28T15:28:47.024Z,100045.11
2018-08-28T15:31:15.999Z,100045.84
2018-08-28T15:33:44.980Z,100040.42
2018-08-28T15:36:13.966Z,100039.45
2018-08-28T15:38:43.267Z,100040.00
2018-08-28T15:41:12.055Z,100033.73
2018-08-28T15:43:41.042Z,100031.30
2018-08-28T15:46:10.038Z,100034.70
2018-08-28T15:48:39.050Z,100033.11
2018-08-28T15:51:08.129Z,100027.83
2018-08-28T15:53:37.091Z,100024.69
2018-08-28T15:56:06.070Z,100025.84
2018-08-28T15:58:35.055Z,100024.94
2018-08-28T16:01:04.140Z,100022.53
2018-08-28T16:03:33.194Z,100025.16
2018-08-28T16:06:02.223Z,100017.00
2018-08-28T16:08:31.247Z,100014.33
2018-08-28T16:11:00.249Z,100009.87
2018-08-28T16:13:29.258Z,100017.28
2018-08-28T16:15:58.254Z,100012.67
2018-08-28T16:18:27.266Z,100012.98
2018-08-28T16:20:56.254Z,100012.58
2018-08-28T16:23:32.681Z,100013.19
2018-08-28T16:26:01.649Z,100016.47
2018-08-28T16:28:30.837Z,100003.58
2018-08-28T16:30:59.636Z,100004.02
2018-08-28T16:33:28.628Z,99999.09
2018-08-28T16:35:57.709Z,100001.49
2018-08-28T16:38:26.612Z,99994.64
2018-08-28T16:40:55.611Z,99997.08
2018-08-28T16:43:24.582Z,99993.23
2018-08-28T16:45:53.586Z,99992.81
2018-08-28T16:48:22.724Z,99992.00
2018-08-28T16:50:51.672Z,99995.58
2018-08-28T16:53:20.696Z,99996.99
2018-08-28T16:55:49.692Z,99992.74
2018-08-28T16:58:18.822Z,99987.67
2018-08-28T17:00:47.802Z,99988.95
2018-08-28T17:03:16.806Z,99987.91
2018-08-28T17:05:45.822Z,99990.80
2018-08-28T17:08:14.834Z,99994.62
2018-08-28T17:10:43.851Z,99991.45
2018-08-28T17:13:12.859Z,99992.87
2018-08-28T17:15:41.854Z,99988.63
2018-08-28T17:18:10.895Z,99985.78
2018-08-28T17:20:39.911Z,99989.59
2018-08-28T17:23:08.954Z,99991.36
2018-08-28T17:25:37.922Z,99991.77
2018-08-28T17:28:06.917Z,99989.19
2018-08-28T17:30:42.550Z,99985.78
2018-08-28T17:33:11.599Z,99992.66
2018-08-28T17:35:40.597Z,99988.44
2018-08-28T17:38:10.030Z,99982.96
2018-08-28T17:40:39.043Z,99983.54
2018-08-28T17:43:08.264Z,99989.33
2018-08-28T17:45:37.234Z,99992.30
2018-08-28T17:48:06.348Z,99988.68
2018-08-28T17:50:35.380Z,99981.52
2018-08-28T17:53:05.114Z,99989.55
2018-08-28T17:55:34.092Z,99989.02
2018-08-28T17:58:03.202Z,99986.16
2018-08-28T18:00:32.174Z,99990.02
2018-08-28T18:03:01.163Z,99993.23
2018-08-28T18:05:30.178Z,99989.99
2018-08-28T18:07:59.179Z,99993.19
2018-08-28T18:10:28.167Z,99997.34
2018-08-28T18:12:57.194Z,99996.05
2018-08-28T18:15:26.331Z,99996.42
2018-08-28T18:17:55.296Z,99990.48
2018-08-28T18:20:24.345Z,99995.11
2018-08-28T18:22:53.340Z,99992.77
2018-08-28T18:25:22.405Z,99992.77
2018-08-28T18:27:51.553Z,99994.07
2018-08-28T18:30:21.024Z,99992.39
2018-08-28T18:32:50.044Z,99990.71
2018-08-28T18:35:19.579Z,99991.69
2018-08-28T18:37:48.539Z,99987.86
2018-08-28T18:40:17.550Z,99994.27
2018-08-28T18:42:46.556Z,99991.56
2018-08-28T18:45:15.546Z,99993.04
2018-08-28T18:47:44.543Z,99985.62
2018-08-28T18:50:13.530Z,99986.37
2018-08-28T18:52:42.590Z,99987.81
2018-08-28T18:55:11.572Z,99986.44
2018-08-28T18:57:40.582Z,99983.27
2018-08-28T19:00:09.558Z,99980.47
2018-08-28T19:02:38.638Z,99980.50
2018-08-28T19:05:07.558Z,99984.98
2018-08-28T19:07:36.569Z,99992.66
2018-08-28T19:10:05.548Z,99992.66
2018-08-28T19:12:34.513Z,99993.15
2018-08-28T19:15:03.528Z,99993.87
2018-08-28T19:17:32.493Z,99994.21
2018-08-28T19:20:02.402Z,99996.50
2018-08-28T19:22:31.391Z,99997.28
2018-08-28T19:25:00.381Z,99997.60
2018-08-28T19:27:29.374Z,99997.77
2018-08-28T19:29:58.438Z,99993.29
2018-08-28T19:32:27.802Z,99995.55
2018-08-28T19:34:56.766Z,99996.33
2018-08-28T19:37:25.883Z,99992.70
2018-08-28T19:39:54.841Z,99993.70
2018-08-28T19:42:23.876Z,99985.84
2018-08-28T19:44:52.927Z,99994.84
2018-08-28T19:47:21.898Z,99985.64
2018-08-28T19:49:51.010Z,99985.78
2018-08-28T19:52:19.930Z,99985.06
2018-08-28T19:54:49.101Z,99985.03
2018-08-28T19:57:18.059Z,99981.58
2018-08-28T19:59:47.243Z,99982.92
2018-08-28T20:02:16.279Z,99978.09
2018-08-28T20:04:45.351Z,99976.42
2018-08-28T20:07:14.350Z,99962.73
2018-08-28T20:09:43.333Z,99960.11
2018-08-28T20:12:12.335Z,99968.48
2018-08-28T20:14:41.529Z,99959.41
2018-08-28T20:17:10.465Z,99956.27
2018-08-28T20:19:39.413Z,99947.24
2018-08-28T20:22:10.839Z,99941.54
2018-08-28T20:24:39.980Z,99944.00
2018-08-28T20:27:09.119Z,99941.08
2018-08-28T20:29:38.132Z,99947.36
2018-08-28T20:32:07.395Z,99941.36
2018-08-28T20:34:36.302Z,99944.55
2018-08-28T20:37:05.427Z,99939.99
2018-08-28T20:39:34.428Z,99945.08
2018-08-28T20:42:03.401Z,99945.56
2018-08-28T20:44:32.378Z,99948.22
2018-08-28T20:47:01.371Z,99942.75
2018-08-28T20:49:30.339Z,99942.43
2018-08-28T20:51:59.334Z,99940.71
2018-08-28T20:54:28.324Z,99937.91
2018-08-28T20:56:57.319Z,99939.86
2018-08-28T20:59:26.303Z,99946.66
2018-08-28T21:01:55.410Z,99937.26
2018-08-28T21:04:24.626Z,99938.97
2018-08-28T21:06:53.660Z,99937.97
2018-08-28T21:09:22.626Z,99943.23
2018-08-28T21:11:51.579Z,99933.20
2018-08-28T21:14:20.567Z,99926.91
2018-08-28T21:16:49.533Z,99927.56
2018-08-28T21:19:18.541Z,99920.83
2018-08-28T21:21:47.502Z,99920.62
2018-08-28T21:24:16.538Z,99921.62
2018-08-28T21:26:45.518Z,99916.73
2018-08-28T21:29:14.523Z,99917.22
2018-08-28T21:31:43.535Z,99919.19
2018-08-28T21:34:12.499Z,99915.34
2018-08-28T21:36:41.498Z,99907.09
2018-08-28T21:39:10.465Z,99909.86
2018-08-28T21:41:39.501Z,99913.59
2018-08-28T21:44:08.478Z,99905.34
2018-08-28T21:46:37.482Z,99909.73
2018-08-28T21:49:06.481Z,99897.67
2018-08-28T21:51:35.473Z,99902.51
2018-08-28T21:54:04.531Z,99893.24
2018-08-28T21:56:33.490Z,99895.03
2018-08-28T21:59:02.504Z,99885.63
2018-08-28T22:01:31.457Z,99886.52
2018-08-28T22:04:00.467Z,99875.48
2018-08-28T22:06:34.787Z,99880.91
2018-08-28T22:09:04.770Z,99885.86
2018-08-28T22:11:33.950Z,99876.63
2018-08-28T22:14:02.978Z,99864.77
2018-08-28T22:16:31.986Z,99872.86
2018-08-28T22:19:01.015Z,99872.48
2018-08-28T22:21:29.978Z,99872.64
2018-08-28T22:23:58.971Z,99866.40
2018-08-28T22:26:27.958Z,99860.83
2018-08-28T22:28:56.932Z,99853.62
2018-08-28T22:31:25.964Z,99859.56
2018-08-28T22:33:54.935Z,99857.29
2018-08-28T22:36:24.062Z,99859.65
2018-08-28T22:38:53.053Z,99855.27
2018-08-28T22:41:22.025Z,99851.64
2018-08-28T22:43:51.013Z,99858.02
2018-08-28T22:46:19.972Z,99848.82
2018-08-28T22:48:49.274Z,99856.39
2018-08-28T22:51:18.242Z,99849.84
2018-08-28T22:53:47.219Z,99840.21
2018-08-28T22:56:16.216Z,99834.30
2018-08-28T22:58:45.286Z,99846.31
2018-08-28T23:01:14.254Z,99843.52
2018-08-28T23:03:43.234Z,99843.37
2018-08-28T23:06:12.229Z,99839.55
2018-08-28T23:08:41.202Z,99843.95
2018-08-28T23:11:10.311Z,99847.70
2018-08-28T23:13:39.286Z,99839.30
2018-08-28T23:16:08.273Z,99841.30
2018-08-28T23:18:37.414Z,99832.52
2018-08-28T23:21:06.391Z,99833.28
2018-08-28T23:23:35.390Z,99837.88
2018-08-28T23:26:04.575Z,99837.25
2018-08-28T23:28:33.574Z,99832.94
2018-08-28T23:31:02.574Z,99835.91
2018-08-28T23:33:31.573Z,99834.94
2018-08-28T23:36:00.538Z,99837.36
2018-08-28T23:38:29.590Z,99836.02
2018-08-28T23:40:58.574Z,99824.17
2018-08-28T23:43:27.542Z,99820.52
2018-08-28T23:45:56.525Z,99812.30
2018-08-28T23:48:25.810Z,99819.38
2018-08-28T23:50:54.807Z,99820.83
2018-08-28T23:53:23.866Z,99817.86
2018-08-28T23:55:52.951Z,99819.20
2018-08-28T23:58:21.828Z,99809.92
